sensor_id;sensor_type;location;lat;lon;timestamp;P1;durP1;ratioP1;P2;durP2;ratioP2
52894;SDS011;38759;53.396;6.722;2023-09-19T00:02:16;10.88;;;1.45;;
52894;SDS011;38759;53.396;6.722;2023-09-19T00:04:42;8.18;;;1.50;;
52894;SDS011;38759;53.396;6.722;2023-09-19T00:07:08;7.95;;;1.38;;
52894;SDS011;38759;53.396;6.722;2023-09-19T00:09:34;9.18;;;1.73;;
52894;SDS011;38759;53.396;6.722;2023-09-19T00:12:06;5.95;;;1.30;;
52894;SDS011;38759;53.396;6.722;2023-09-19T00:14:34;7.07;;;1.27;;
52894;SDS011;38759;53.396;6.722;2023-09-19T00:17:01;7.63;;;1.70;;
52894;SDS011;38759;53.396;6.722;2023-09-19T00:19:33;7.05;;;1.50;;
52894;SDS011;38759;53.396;6.722;2023-09-19T00:21:59;9.32;;;1.48;;
52894;SDS011;38759;53.396;6.722;2023-09-19T00:24:25;9.20;;;1.55;;
52894;SDS011;38759;53.396;6.722;2023-09-19T00:26:53;7.95;;;1.73;;
52894;SDS011;38759;53.396;6.722;2023-09-19T00:29:21;6.43;;;1.35;;
52894;SDS011;38759;53.396;6.722;2023-09-19T00:31:48;4.47;;;1.45;;
52894;SDS011;38759;53.396;6.722;2023-09-19T00:34:15;12.35;;;1.92;;
52894;SDS011;38759;53.396;6.722;2023-09-19T00:36:41;13.13;;;2.72;;
52894;SDS011;38759;53.396;6.722;2023-09-19T00:39:08;6.53;;;1.45;;
52894;SDS011;38759;53.396;6.722;2023-09-19T00:41:35;9.50;;;1.70;;
52894;SDS011;38759;53.396;6.722;2023-09-19T00:44:02;7.18;;;1.15;;
52894;SDS011;38759;53.396;6.722;2023-09-19T00:46:29;6.13;;;1.50;;
52894;SDS011;38759;53.396;6.722;2023-09-19T00:48:57;6.95;;;1.52;;
52894;SDS011;38759;53.396;6.722;2023-09-19T00:51:24;10.02;;;1.55;;
52894;SDS011;38759;53.396;6.722;2023-09-19T00:53:51;6.85;;;1.55;;
52894;SDS011;38759;53.396;6.722;2023-09-19T00:56:18;8.50;;;1.90;;
52894;SDS011;38759;53.396;6.722;2023-09-19T00:58:44;8.98;;;1.50;;
52894;SDS011;38759;53.396;6.722;2023-09-19T01:01:12;9.43;;;1.70;;
52894;SDS011;38759;53.396;6.722;2023-09-19T01:03:40;9.27;;;1.60;;
52894;SDS011;38759;53.396;6.722;2023-09-19T01:06:07;11.20;;;1.40;;
52894;SDS011;38759;53.396;6.722;2023-09-19T01:08:33;3.47;;;1.33;;
52894;SDS011;38759;53.396;6.722;2023-09-19T01:14:06;3.72;;;1.27;;
52894;SDS011;38759;53.396;6.722;2023-09-19T01:17:03;9.70;;;1.90;;
52894;SDS011;38759;53.396;6.722;2023-09-19T01:23:00;7.43;;;1.30;;
52894;SDS011;38759;53.396;6.722;2023-09-19T01:25:42;11.13;;;1.58;;
52894;SDS011;38759;53.396;6.722;2023-09-19T01:31:09;10.63;;;1.58;;
52894;SDS011;38759;53.396;6.722;2023-09-19T01:36:35;16.60;;;1.70;;
52894;SDS011;38759;53.396;6.722;2023-09-19T01:39:08;11.15;;;1.45;;
52894;SDS011;38759;53.396;6.722;2023-09-19T01:47:37;6.05;;;1.45;;
52894;SDS011;38759;53.396;6.722;2023-09-19T01:50:17;9.35;;;1.50;;
52894;SDS011;38759;53.396;6.722;2023-09-19T01:52:57;12.32;;;2.08;;
52894;SDS011;38759;53.396;6.722;2023-09-19T01:55:46;4.50;;;1.52;;
52894;SDS011;38759;53.396;6.722;2023-09-19T01:58:28;8.23;;;1.60;;
52894;SDS011;38759;53.396;6.722;2023-09-19T02:01:00;10.93;;;1.52;;
52894;SDS011;38759;53.396;6.722;2023-09-19T02:03:26;4.82;;;1.70;;
52894;SDS011;38759;53.396;6.722;2023-09-19T02:05:54;5.28;;;1.45;;
52894;SDS011;38759;53.396;6.722;2023-09-19T02:08:20;7.88;;;1.33;;
52894;SDS011;38759;53.396;6.722;2023-09-19T02:10:50;4.35;;;1.20;;
52894;SDS011;38759;53.396;6.722;2023-09-19T02:13:16;8.23;;;1.70;;
52894;SDS011;38759;53.396;6.722;2023-09-19T02:15:45;9.60;;;1.50;;
52894;SDS011;38759;53.396;6.722;2023-09-19T02:18:11;7.47;;;1.35;;
52894;SDS011;38759;53.396;6.722;2023-09-19T02:20:38;7.28;;;1.75;;
52894;SDS011;38759;53.396;6.722;2023-09-19T02:23:04;4.50;;;1.60;;
52894;SDS011;38759;53.396;6.722;2023-09-19T02:25:30;4.25;;;1.10;;
52894;SDS011;38759;53.396;6.722;2023-09-19T02:27:57;8.18;;;1.70;;
52894;SDS011;38759;53.396;6.722;2023-09-19T02:30:26;6.03;;;1.40;;
52894;SDS011;38759;53.396;6.722;2023-09-19T02:32:52;9.93;;;2.35;;
52894;SDS011;38759;53.396;6.722;2023-09-19T02:35:18;11.43;;;2.30;;
52894;SDS011;38759;53.396;6.722;2023-09-19T02:37:47;4.55;;;1.10;;
52894;SDS011;38759;53.396;6.722;2023-09-19T02:40:13;14.35;;;2.13;;
52894;SDS011;38759;53.396;6.722;2023-09-19T02:42:48;7.85;;;1.20;;
52894;SDS011;38759;53.396;6.722;2023-09-19T02:45:17;5.97;;;1.02;;
52894;SDS011;38759;53.396;6.722;2023-09-19T02:47:44;6.75;;;1.38;;
52894;SDS011;38759;53.396;6.722;2023-09-19T02:50:10;4.47;;;1.23;;
52894;SDS011;38759;53.396;6.722;2023-09-19T02:52:37;7.95;;;1.50;;
52894;SDS011;38759;53.396;6.722;2023-09-19T02:55:03;13.65;;;1.40;;
52894;SDS011;38759;53.396;6.722;2023-09-19T02:57:34;6.85;;;1.50;;
52894;SDS011;38759;53.396;6.722;2023-09-19T03:00:00;10.88;;;2.00;;
52894;SDS011;38759;53.396;6.722;2023-09-19T03:02:26;13.65;;;2.40;;
52894;SDS011;38759;53.396;6.722;2023-09-19T03:04:53;7.85;;;1.58;;
52894;SDS011;38759;53.396;6.722;2023-09-19T03:07:19;8.38;;;1.30;;
52894;SDS011;38759;53.396;6.722;2023-09-19T03:09:44;8.10;;;1.40;;
52894;SDS011;38759;53.396;6.722;2023-09-19T03:12:10;6.05;;;1.60;;
52894;SDS011;38759;53.396;6.722;2023-09-19T03:14:36;6.25;;;1.23;;
52894;SDS011;38759;53.396;6.722;2023-09-19T03:17:02;7.65;;;1.50;;
52894;SDS011;38759;53.396;6.722;2023-09-19T03:19:31;5.35;;;1.27;;
52894;SDS011;38759;53.396;6.722;2023-09-19T03:21:58;12.63;;;2.30;;
52894;SDS011;38759;53.396;6.722;2023-09-19T03:24:24;7.68;;;1.58;;
52894;SDS011;38759;53.396;6.722;2023-09-19T03:26:51;8.68;;;1.20;;
52894;SDS011;38759;53.396;6.722;2023-09-19T03:29:17;10.77;;;1.50;;
52894;SDS011;38759;53.396;6.722;2023-09-19T03:31:43;5.97;;;1.13;;
52894;SDS011;38759;53.396;6.722;2023-09-19T03:34:08;5.22;;;1.10;;
52894;SDS011;38759;53.396;6.722;2023-09-19T03:36:34;11.55;;;1.30;;
52894;SDS011;38759;53.396;6.722;2023-09-19T03:39:01;6.80;;;1.65;;
52894;SDS011;38759;53.396;6.722;2023-09-19T03:41:30;13.10;;;2.00;;
52894;SDS011;38759;53.396;6.722;2023-09-19T03:43:56;6.72;;;1.30;;
52894;SDS011;38759;53.396;6.722;2023-09-19T03:46:22;8.07;;;1.52;;
52894;SDS011;38759;53.396;6.722;2023-09-19T03:48:48;8.15;;;1.35;;
52894;SDS011;38759;53.396;6.722;2023-09-19T03:51:13;13.20;;;1.48;;
52894;SDS011;38759;53.396;6.722;2023-09-19T03:53:39;4.88;;;1.33;;
52894;SDS011;38759;53.396;6.722;2023-09-19T03:56:04;7.72;;;1.27;;
52894;SDS011;38759;53.396;6.722;2023-09-19T03:58:30;7.03;;;1.42;;
52894;SDS011;38759;53.396;6.722;2023-09-19T04:00:57;5.80;;;1.27;;
52894;SDS011;38759;53.396;6.722;2023-09-19T04:03:23;7.00;;;1.23;;
52894;SDS011;38759;53.396;6.722;2023-09-19T04:05:53;3.63;;;1.35;;
52894;SDS011;38759;53.396;6.722;2023-09-19T04:08:19;3.45;;;0.85;;
52894;SDS011;38759;53.396;6.722;2023-09-19T04:10:45;8.38;;;1.30;;
52894;SDS011;38759;53.396;6.722;2023-09-19T04:13:10;5.35;;;1.42;;
52894;SDS011;38759;53.396;6.722;2023-09-19T04:15:36;6.15;;;1.25;;
52894;SDS011;38759;53.396;6.722;2023-09-19T04:18:02;11.15;;;1.80;;
52894;SDS011;38759;53.396;6.722;2023-09-19T04:20:28;4.18;;;1.20;;
52894;SDS011;38759;53.396;6.722;2023-09-19T04:22:54;7.72;;;1.40;;
52894;SDS011;38759;53.396;6.722;2023-09-19T04:25:20;5.13;;;1.27;;
52894;SDS011;38759;53.396;6.722;2023-09-19T04:27:46;7.32;;;1.15;;
52894;SDS011;38759;53.396;6.722;2023-09-19T04:30:12;7.50;;;1.42;;
52894;SDS011;38759;53.396;6.722;2023-09-19T04:32:40;6.47;;;1.30;;
52894;SDS011;38759;53.396;6.722;2023-09-19T04:35:11;9.95;;;1.27;;
52894;SDS011;38759;53.396;6.722;2023-09-19T04:37:38;5.90;;;1.08;;
52894;SDS011;38759;53.396;6.722;2023-09-19T04:40:08;7.47;;;1.60;;
52894;SDS011;38759;53.396;6.722;2023-09-19T04:42:38;2.85;;;1.15;;
52894;SDS011;38759;53.396;6.722;2023-09-19T04:45:05;6.93;;;1.38;;
52894;SDS011;38759;53.396;6.722;2023-09-19T04:47:31;14.07;;;1.48;;
52894;SDS011;38759;53.396;6.722;2023-09-19T04:49:57;11.15;;;1.35;;
52894;SDS011;38759;53.396;6.722;2023-09-19T04:52:24;5.32;;;0.98;;
52894;SDS011;38759;53.396;6.722;2023-09-19T04:54:50;5.07;;;1.27;;
52894;SDS011;38759;53.396;6.722;2023-09-19T04:57:15;6.93;;;1.48;;
52894;SDS011;38759;53.396;6.722;2023-09-19T04:59:41;6.03;;;1.65;;
52894;SDS011;38759;53.396;6.722;2023-09-19T05:02:07;9.23;;;1.70;;
52894;SDS011;38759;53.396;6.722;2023-09-19T05:04:37;9.13;;;1.63;;
52894;SDS011;38759;53.396;6.722;2023-09-19T05:07:03;6.00;;;1.35;;
52894;SDS011;38759;53.396;6.722;2023-09-19T05:09:29;6.57;;;1.75;;
52894;SDS011;38759;53.396;6.722;2023-09-19T05:11:55;6.35;;;1.70;;
52894;SDS011;38759;53.396;6.722;2023-09-19T05:14:21;4.40;;;1.20;;
52894;SDS011;38759;53.396;6.722;2023-09-19T05:16:48;8.52;;;1.38;;
52894;SDS011;38759;53.396;6.722;2023-09-19T05:19:14;3.45;;;1.20;;
52894;SDS011;38759;53.396;6.722;2023-09-19T05:21:39;11.95;;;1.50;;
52894;SDS011;38759;53.396;6.722;2023-09-19T05:24:05;8.68;;;1.20;;
52894;SDS011;38759;53.396;6.722;2023-09-19T05:26:31;6.18;;;1.40;;
52894;SDS011;38759;53.396;6.722;2023-09-19T05:28:57;4.90;;;1.42;;
52894;SDS011;38759;53.396;6.722;2023-09-19T05:31:23;5.70;;;1.20;;
52894;SDS011;38759;53.396;6.722;2023-09-19T05:33:50;14.65;;;1.73;;
52894;SDS011;38759;53.396;6.722;2023-09-19T05:36:17;3.78;;;1.20;;
52894;SDS011;38759;53.396;6.722;2023-09-19T05:38:42;6.88;;;1.63;;
52894;SDS011;38759;53.396;6.722;2023-09-19T05:41:09;8.73;;;1.50;;
52894;SDS011;38759;53.396;6.722;2023-09-19T05:43:38;10.48;;;1.55;;
52894;SDS011;38759;53.396;6.722;2023-09-19T05:46:06;6.03;;;1.60;;
52894;SDS011;38759;53.396;6.722;2023-09-19T05:48:33;9.00;;;1.38;;
52894;SDS011;38759;53.396;6.722;2023-09-19T05:50:59;7.22;;;1.25;;
52894;SDS011;38759;53.396;6.722;2023-09-19T05:53:26;7.93;;;1.73;;
52894;SDS011;38759;53.396;6.722;2023-09-19T05:55:52;6.15;;;1.65;;
52894;SDS011;38759;53.396;6.722;2023-09-19T05:58:20;8.15;;;1.42;;
52894;SDS011;38759;53.396;6.722;2023-09-19T06:00:46;11.18;;;1.70;;
52894;SDS011;38759;53.396;6.722;2023-09-19T06:03:14;8.35;;;1.77;;
52894;SDS011;38759;53.396;6.722;2023-09-19T06:05:40;13.32;;;1.98;;
52894;SDS011;38759;53.396;6.722;2023-09-19T06:08:06;8.27;;;1.50;;
52894;SDS011;38759;53.396;6.722;2023-09-19T06:10:33;6.43;;;1.48;;
52894;SDS011;38759;53.396;6.722;2023-09-19T06:13:00;10.88;;;2.10;;
52894;SDS011;38759;53.396;6.722;2023-09-19T06:15:28;6.60;;;1.10;;
52894;SDS011;38759;53.396;6.722;2023-09-19T06:17:54;7.80;;;1.30;;
52894;SDS011;38759;53.396;6.722;2023-09-19T06:20:21;5.75;;;1.30;;
52894;SDS011;38759;53.396;6.722;2023-09-19T06:22:48;8.25;;;2.05;;
52894;SDS011;38759;53.396;6.722;2023-09-19T06:25:15;9.43;;;1.42;;
52894;SDS011;38759;53.396;6.722;2023-09-19T06:27:47;9.55;;;1.88;;
52894;SDS011;38759;53.396;6.722;2023-09-19T06:30:17;10.32;;;1.38;;
52894;SDS011;38759;53.396;6.722;2023-09-19T06:32:43;4.68;;;1.45;;
52894;SDS011;38759;53.396;6.722;2023-09-19T06:35:09;6.38;;;1.92;;
52894;SDS011;38759;53.396;6.722;2023-09-19T06:37:36;8.20;;;1.77;;
52894;SDS011;38759;53.396;6.722;2023-09-19T06:40:13;5.85;;;1.73;;
52894;SDS011;38759;53.396;6.722;2023-09-19T06:42:40;4.70;;;1.27;;
52894;SDS011;38759;53.396;6.722;2023-09-19T06:45:07;11.27;;;1.67;;
52894;SDS011;38759;53.396;6.722;2023-09-19T06:47:34;6.60;;;1.35;;
52894;SDS011;38759;53.396;6.722;2023-09-19T06:49:59;11.95;;;1.92;;
52894;SDS011;38759;53.396;6.722;2023-09-19T06:52:27;10.02;;;1.52;;
52894;SDS011;38759;53.396;6.722;2023-09-19T06:54:53;8.10;;;1.50;;
52894;SDS011;38759;53.396;6.722;2023-09-19T06:57:19;10.95;;;1.80;;
52894;SDS011;38759;53.396;6.722;2023-09-19T06:59:45;6.22;;;1.60;;
52894;SDS011;38759;53.396;6.722;2023-09-19T07:02:11;7.97;;;1.73;;
52894;SDS011;38759;53.396;6.722;2023-09-19T07:04:38;7.70;;;1.60;;
52894;SDS011;38759;53.396;6.722;2023-09-19T07:07:04;10.65;;;1.73;;
52894;SDS011;38759;53.396;6.722;2023-09-19T07:09:30;8.27;;;1.65;;
52894;SDS011;38759;53.396;6.722;2023-09-19T07:11:56;6.93;;;1.90;;
52894;SDS011;38759;53.396;6.722;2023-09-19T07:14:22;6.13;;;1.88;;
52894;SDS011;38759;53.396;6.722;2023-09-19T07:16:48;10.10;;;1.50;;
52894;SDS011;38759;53.396;6.722;2023-09-19T07:19:14;8.70;;;1.58;;
52894;SDS011;38759;53.396;6.722;2023-09-19T07:21:40;7.53;;;1.33;;
52894;SDS011;38759;53.396;6.722;2023-09-19T07:24:07;10.32;;;1.60;;
52894;SDS011;38759;53.396;6.722;2023-09-19T07:26:33;19.23;;;2.63;;
52894;SDS011;38759;53.396;6.722;2023-09-19T07:28:59;12.02;;;1.83;;
52894;SDS011;38759;53.396;6.722;2023-09-19T07:31:27;10.90;;;2.13;;
52894;SDS011;38759;53.396;6.722;2023-09-19T07:33:53;11.05;;;1.85;;
52894;SDS011;38759;53.396;6.722;2023-09-19T07:36:19;8.20;;;1.83;;
52894;SDS011;38759;53.396;6.722;2023-09-19T07:38:45;9.90;;;1.67;;
52894;SDS011;38759;53.396;6.722;2023-09-19T07:41:11;12.50;;;1.95;;
52894;SDS011;38759;53.396;6.722;2023-09-19T07:43:36;6.50;;;1.60;;
52894;SDS011;38759;53.396;6.722;2023-09-19T07:46:05;14.55;;;1.95;;
52894;SDS011;38759;53.396;6.722;2023-09-19T07:48:35;14.88;;;1.65;;
52894;SDS011;38759;53.396;6.722;2023-09-19T07:51:05;11.02;;;1.60;;
52894;SDS011;38759;53.396;6.722;2023-09-19T07:53:32;9.15;;;1.70;;
52894;SDS011;38759;53.396;6.722;2023-09-19T07:56:05;12.88;;;2.05;;
52894;SDS011;38759;53.396;6.722;2023-09-19T07:58:32;7.95;;;1.55;;
52894;SDS011;38759;53.396;6.722;2023-09-19T08:01:02;9.02;;;1.45;;
52894;SDS011;38759;53.396;6.722;2023-09-19T08:03:29;6.63;;;1.48;;
52894;SDS011;38759;53.396;6.722;2023-09-19T08:05:56;7.13;;;1.48;;
52894;SDS011;38759;53.396;6.722;2023-09-19T08:08:23;10.27;;;1.70;;
52894;SDS011;38759;53.396;6.722;2023-09-19T08:10:52;12.88;;;1.60;;
52894;SDS011;38759;53.396;6.722;2023-09-19T08:13:22;11.63;;;2.63;;
52894;SDS011;38759;53.396;6.722;2023-09-19T08:15:48;12.73;;;2.17;;
52894;SDS011;38759;53.396;6.722;2023-09-19T08:18:16;10.00;;;2.03;;
52894;SDS011;38759;53.396;6.722;2023-09-19T08:20:42;11.93;;;1.88;;
52894;SDS011;38759;53.396;6.722;2023-09-19T08:23:08;10.00;;;2.08;;
52894;SDS011;38759;53.396;6.722;2023-09-19T08:25:33;13.50;;;2.10;;
52894;SDS011;38759;53.396;6.722;2023-09-19T08:27:59;10.15;;;1.83;;
52894;SDS011;38759;53.396;6.722;2023-09-19T08:30:26;12.68;;;2.17;;
52894;SDS011;38759;53.396;6.722;2023-09-19T08:33:01;11.40;;;1.70;;
52894;SDS011;38759;53.396;6.722;2023-09-19T08:35:29;5.78;;;1.55;;
52894;SDS011;38759;53.396;6.722;2023-09-19T08:37:54;10.43;;;1.90;;
52894;SDS011;38759;53.396;6.722;2023-09-19T08:40:20;7.78;;;1.90;;
52894;SDS011;38759;53.396;6.722;2023-09-19T08:42:49;10.23;;;1.92;;
52894;SDS011;38759;53.396;6.722;2023-09-19T08:45:16;10.70;;;2.47;;
52894;SDS011;38759;53.396;6.722;2023-09-19T08:47:45;10.38;;;2.08;;
52894;SDS011;38759;53.396;6.722;2023-09-19T08:50:19;9.52;;;2.13;;
52894;SDS011;38759;53.396;6.722;2023-09-19T08:52:53;9.93;;;1.95;;
52894;SDS011;38759;53.396;6.722;2023-09-19T08:55:26;7.78;;;1.98;;
52894;SDS011;38759;53.396;6.722;2023-09-19T08:57:59;12.68;;;1.95;;
52894;SDS011;38759;53.396;6.722;2023-09-19T09:00:33;14.07;;;1.92;;
52894;SDS011;38759;53.396;6.722;2023-09-19T09:03:01;14.77;;;2.20;;
52894;SDS011;38759;53.396;6.722;2023-09-19T09:05:29;10.70;;;2.13;;
52894;SDS011;38759;53.396;6.722;2023-09-19T09:07:57;13.60;;;2.03;;
52894;SDS011;38759;53.396;6.722;2023-09-19T09:10:24;9.18;;;1.77;;
52894;SDS011;38759;53.396;6.722;2023-09-19T09:12:53;10.30;;;1.80;;
52894;SDS011;38759;53.396;6.722;2023-09-19T09:15:22;11.52;;;2.05;;
52894;SDS011;38759;53.396;6.722;2023-09-19T09:17:49;16.42;;;1.85;;
52894;SDS011;38759;53.396;6.722;2023-09-19T09:20:16;11.55;;;2.55;;
52894;SDS011;38759;53.396;6.722;2023-09-19T09:22:53;14.38;;;2.17;;
52894;SDS011;38759;53.396;6.722;2023-09-19T09:25:20;8.73;;;1.67;;
52894;SDS011;38759;53.396;6.722;2023-09-19T09:28:00;8.07;;;1.88;;
52894;SDS011;38759;53.396;6.722;2023-09-19T09:30:36;20.08;;;2.17;;
52894;SDS011;38759;53.396;6.722;2023-09-19T09:33:09;7.05;;;2.40;;
52894;SDS011;38759;53.396;6.722;2023-09-19T09:35:36;11.10;;;2.08;;
52894;SDS011;38759;53.396;6.722;2023-09-19T09:38:12;14.93;;;2.85;;
52894;SDS011;38759;53.396;6.722;2023-09-19T09:40:51;14.10;;;2.20;;
52894;SDS011;38759;53.396;6.722;2023-09-19T09:43:31;6.63;;;1.55;;
52894;SDS011;38759;53.396;6.722;2023-09-19T09:46:09;10.80;;;1.98;;
52894;SDS011;38759;53.396;6.722;2023-09-19T09:51:39;16.63;;;2.42;;
52894;SDS011;38759;53.396;6.722;2023-09-19T09:54:27;11.75;;;2.40;;
52894;SDS011;38759;53.396;6.722;2023-09-19T09:57:07;7.57;;;2.38;;
52894;SDS011;38759;53.396;6.722;2023-09-19T09:59:58;21.55;;;2.58;;
52894;SDS011;38759;53.396;6.722;2023-09-19T10:02:36;10.57;;;2.38;;
52894;SDS011;38759;53.396;6.722;2023-09-19T10:07:52;14.93;;;3.03;;
52894;SDS011;38759;53.396;6.722;2023-09-19T10:10:33;12.32;;;3.03;;
52894;SDS011;38759;53.396;6.722;2023-09-19T10:13:17;11.32;;;2.30;;
52894;SDS011;38759;53.396;6.722;2023-09-19T10:15:50;12.98;;;2.72;;
52894;SDS011;38759;53.396;6.722;2023-09-19T10:18:21;9.48;;;2.38;;
52894;SDS011;38759;53.396;6.722;2023-09-19T10:20:51;10.18;;;2.78;;
52894;SDS011;38759;53.396;6.722;2023-09-19T10:23:18;10.32;;;2.33;;
52894;SDS011;38759;53.396;6.722;2023-09-19T10:25:49;11.38;;;2.75;;
52894;SDS011;38759;53.396;6.722;2023-09-19T10:28:16;11.38;;;2.05;;
52894;SDS011;38759;53.396;6.722;2023-09-19T10:30:47;14.45;;;2.53;;
52894;SDS011;38759;53.396;6.722;2023-09-19T10:33:18;11.60;;;2.70;;
52894;SDS011;38759;53.396;6.722;2023-09-19T10:35:50;15.00;;;2.90;;
52894;SDS011;38759;53.396;6.722;2023-09-19T10:38:17;12.43;;;2.80;;
52894;SDS011;38759;53.396;6.722;2023-09-19T10:40:48;16.05;;;2.83;;
52894;SDS011;38759;53.396;6.722;2023-09-19T10:43:16;18.85;;;2.35;;
52894;SDS011;38759;53.396;6.722;2023-09-19T10:45:46;8.27;;;2.20;;
52894;SDS011;38759;53.396;6.722;2023-09-19T10:48:20;13.80;;;2.33;;
52894;SDS011;38759;53.396;6.722;2023-09-19T10:53:20;15.70;;;2.55;;
52894;SDS011;38759;53.396;6.722;2023-09-19T10:55:56;17.60;;;2.40;;
52894;SDS011;38759;53.396;6.722;2023-09-19T10:58:28;20.27;;;2.80;;
52894;SDS011;38759;53.396;6.722;2023-09-19T11:00:59;18.70;;;2.35;;
52894;SDS011;38759;53.396;6.722;2023-09-19T11:03:31;13.50;;;2.60;;
52894;SDS011;38759;53.396;6.722;2023-09-19T11:06:02;11.57;;;2.25;;
52894;SDS011;38759;53.396;6.722;2023-09-19T11:30:52;21.48;;;2.33;;
52894;SDS011;38759;53.396;6.722;2023-09-19T11:36:10;10.55;;;2.70;;
52894;SDS011;38759;53.396;6.722;2023-09-19T11:43:46;13.40;;;2.50;;
52894;SDS011;38759;53.396;6.722;2023-09-19T11:46:12;11.00;;;2.97;;
52894;SDS011;38759;53.396;6.722;2023-09-19T11:48:42;15.25;;;2.75;;
52894;SDS011;38759;53.396;6.722;2023-09-19T11:51:10;16.15;;;3.15;;
52894;SDS011;38759;53.396;6.722;2023-09-19T11:53:45;9.90;;;2.40;;
52894;SDS011;38759;53.396;6.722;2023-09-19T11:56:14;11.18;;;2.55;;
52894;SDS011;38759;53.396;6.722;2023-09-19T11:58:46;7.20;;;1.90;;
52894;SDS011;38759;53.396;6.722;2023-09-19T12:01:14;9.73;;;2.33;;
52894;SDS011;38759;53.396;6.722;2023-09-19T12:03:55;13.73;;;2.47;;
52894;SDS011;38759;53.396;6.722;2023-09-19T12:06:23;15.00;;;2.45;;
52894;SDS011;38759;53.396;6.722;2023-09-19T12:08:51;10.23;;;2.05;;
52894;SDS011;38759;53.396;6.722;2023-09-19T12:11:19;10.35;;;2.15;;
52894;SDS011;38759;53.396;6.722;2023-09-19T12:13:46;10.55;;;2.08;;
52894;SDS011;38759;53.396;6.722;2023-09-19T12:16:18;9.68;;;2.33;;
52894;SDS011;38759;53.396;6.722;2023-09-19T12:18:47;14.52;;;2.40;;
52894;SDS011;38759;53.396;6.722;2023-09-19T12:21:25;10.15;;;2.42;;
52894;SDS011;38759;53.396;6.722;2023-09-19T12:24:07;13.98;;;2.78;;
52894;SDS011;38759;53.396;6.722;2023-09-19T12:26:44;7.50;;;2.10;;
52894;SDS011;38759;53.396;6.722;2023-09-19T12:31:52;12.00;;;2.05;;
52894;SDS011;38759;53.396;6.722;2023-09-19T12:34:31;16.17;;;2.22;;
52894;SDS011;38759;53.396;6.722;2023-09-19T12:39:51;23.83;;;2.30;;
52894;SDS011;38759;53.396;6.722;2023-09-19T12:42:26;13.98;;;2.78;;
52894;SDS011;38759;53.396;6.722;2023-09-19T12:44:57;16.60;;;2.55;;
52894;SDS011;38759;53.396;6.722;2023-09-19T12:47:25;14.45;;;2.40;;
52894;SDS011;38759;53.396;6.722;2023-09-19T12:52:38;15.80;;;3.08;;
52894;SDS011;38759;53.396;6.722;2023-09-19T12:55:05;10.95;;;2.03;;
52894;SDS011;38759;53.396;6.722;2023-09-19T12:57:35;15.10;;;2.28;;
52894;SDS011;38759;53.396;6.722;2023-09-19T13:00:04;18.13;;;2.28;;
52894;SDS011;38759;53.396;6.722;2023-09-19T13:02:31;12.32;;;2.20;;
52894;SDS011;38759;53.396;6.722;2023-09-19T13:04:57;8.23;;;2.10;;
52894;SDS011;38759;53.396;6.722;2023-09-19T13:07:44;19.23;;;3.13;;
52894;SDS011;38759;53.396;6.722;2023-09-19T13:10:14;13.07;;;2.13;;
52894;SDS011;38759;53.396;6.722;2023-09-19T13:12:41;16.58;;;2.42;;
52894;SDS011;38759;53.396;6.722;2023-09-19T13:15:12;10.82;;;2.03;;
52894;SDS011;38759;53.396;6.722;2023-09-19T13:17:44;10.07;;;1.70;;
52894;SDS011;38759;53.396;6.722;2023-09-19T13:20:23;12.13;;;2.03;;
52894;SDS011;38759;53.396;6.722;2023-09-19T13:22:53;14.15;;;2.60;;
52894;SDS011;38759;53.396;6.722;2023-09-19T13:25:24;10.50;;;1.95;;
52894;SDS011;38759;53.396;6.722;2023-09-19T13:27:55;8.07;;;2.00;;
52894;SDS011;38759;53.396;6.722;2023-09-19T13:30:26;13.77;;;1.90;;
52894;SDS011;38759;53.396;6.722;2023-09-19T13:35:34;10.10;;;2.35;;
52894;SDS011;38759;53.396;6.722;2023-09-19T13:38:02;9.95;;;2.33;;
52894;SDS011;38759;53.396;6.722;2023-09-19T13:40:29;11.13;;;2.30;;
52894;SDS011;38759;53.396;6.722;2023-09-19T13:42:56;11.85;;;2.47;;
52894;SDS011;38759;53.396;6.722;2023-09-19T13:45:24;10.60;;;2.55;;
52894;SDS011;38759;53.396;6.722;2023-09-19T13:47:54;9.63;;;2.33;;
52894;SDS011;38759;53.396;6.722;2023-09-19T13:50:20;11.63;;;2.13;;
52894;SDS011;38759;53.396;6.722;2023-09-19T13:52:52;6.53;;;2.20;;
52894;SDS011;38759;53.396;6.722;2023-09-19T13:55:19;9.00;;;1.90;;
52894;SDS011;38759;53.396;6.722;2023-09-19T13:57:47;6.72;;;2.20;;
52894;SDS011;38759;53.396;6.722;2023-09-19T14:00:19;8.55;;;2.00;;
52894;SDS011;38759;53.396;6.722;2023-09-19T14:02:45;13.38;;;1.80;;
52894;SDS011;38759;53.396;6.722;2023-09-19T14:05:13;14.13;;;1.73;;
52894;SDS011;38759;53.396;6.722;2023-09-19T14:07:44;7.22;;;1.60;;
52894;SDS011;38759;53.396;6.722;2023-09-19T14:10:12;9.25;;;2.10;;
52894;SDS011;38759;53.396;6.722;2023-09-19T14:12:39;11.43;;;1.67;;
52894;SDS011;38759;53.396;6.722;2023-09-19T14:15:08;6.80;;;1.30;;
52894;SDS011;38759;53.396;6.722;2023-09-19T14:17:43;6.60;;;1.45;;
52894;SDS011;38759;53.396;6.722;2023-09-19T14:20:10;6.47;;;1.45;;
52894;SDS011;38759;53.396;6.722;2023-09-19T14:22:36;8.48;;;1.73;;
52894;SDS011;38759;53.396;6.722;2023-09-19T14:25:03;4.40;;;1.77;;
52894;SDS011;38759;53.396;6.722;2023-09-19T14:27:32;6.60;;;1.48;;
52894;SDS011;38759;53.396;6.722;2023-09-19T14:29:58;6.80;;;1.70;;
52894;SDS011;38759;53.396;6.722;2023-09-19T14:32:23;7.82;;;1.48;;
52894;SDS011;38759;53.396;6.722;2023-09-19T14:34:49;5.22;;;1.73;;
52894;SDS011;38759;53.396;6.722;2023-09-19T14:37:15;7.10;;;1.45;;
52894;SDS011;38759;53.396;6.722;2023-09-19T14:39:46;7.03;;;1.60;;
52894;SDS011;38759;53.396;6.722;2023-09-19T14:42:11;8.80;;;1.80;;
52894;SDS011;38759;53.396;6.722;2023-09-19T14:44:39;8.32;;;1.98;;
52894;SDS011;38759;53.396;6.722;2023-09-19T14:47:05;8.07;;;1.70;;
52894;SDS011;38759;53.396;6.722;2023-09-19T14:49:35;10.93;;;2.10;;
52894;SDS011;38759;53.396;6.722;2023-09-19T14:52:08;11.60;;;1.92;;
52894;SDS011;38759;53.396;6.722;2023-09-19T14:54:35;5.78;;;1.60;;
52894;SDS011;38759;53.396;6.722;2023-09-19T14:57:03;5.28;;;1.70;;
52894;SDS011;38759;53.396;6.722;2023-09-19T14:59:32;9.93;;;1.88;;
52894;SDS011;38759;53.396;6.722;2023-09-19T15:02:02;14.90;;;2.33;;
52894;SDS011;38759;53.396;6.722;2023-09-19T15:04:29;6.05;;;1.63;;
52894;SDS011;38759;53.396;6.722;2023-09-19T15:06:54;4.85;;;1.60;;
52894;SDS011;38759;53.396;6.722;2023-09-19T15:09:24;6.22;;;1.90;;
52894;SDS011;38759;53.396;6.722;2023-09-19T15:11:51;9.20;;;1.83;;
52894;SDS011;38759;53.396;6.722;2023-09-19T15:14:18;2.83;;;1.40;;
52894;SDS011;38759;53.396;6.722;2023-09-19T15:16:44;5.15;;;1.70;;
52894;SDS011;38759;53.396;6.722;2023-09-19T15:19:09;6.65;;;2.08;;
52894;SDS011;38759;53.396;6.722;2023-09-19T15:21:35;5.50;;;1.77;;
52894;SDS011;38759;53.396;6.722;2023-09-19T15:24:02;6.25;;;1.90;;
52894;SDS011;38759;53.396;6.722;2023-09-19T15:26:28;5.20;;;1.30;;
52894;SDS011;38759;53.396;6.722;2023-09-19T15:28:55;6.25;;;1.40;;
52894;SDS011;38759;53.396;6.722;2023-09-19T15:31:21;5.85;;;1.52;;
52894;SDS011;38759;53.396;6.722;2023-09-19T15:33:47;11.80;;;1.98;;
52894;SDS011;38759;53.396;6.722;2023-09-19T15:36:13;6.80;;;1.60;;
52894;SDS011;38759;53.396;6.722;2023-09-19T15:38:59;4.65;;;1.48;;
52894;SDS011;38759;53.396;6.722;2023-09-19T15:41:40;8.77;;;1.63;;
52894;SDS011;38759;53.396;6.722;2023-09-19T15:44:13;3.35;;;1.15;;
52894;SDS011;38759;53.396;6.722;2023-09-19T15:46:41;6.35;;;1.90;;
52894;SDS011;38759;53.396;6.722;2023-09-19T15:49:07;5.03;;;1.60;;
52894;SDS011;38759;53.396;6.722;2023-09-19T15:51:33;7.63;;;1.67;;
52894;SDS011;38759;53.396;6.722;2023-09-19T15:54:20;4.97;;;1.50;;
52894;SDS011;38759;53.396;6.722;2023-09-19T15:56:47;7.32;;;1.52;;
52894;SDS011;38759;53.396;6.722;2023-09-19T15:59:14;4.88;;;1.83;;
52894;SDS011;38759;53.396;6.722;2023-09-19T16:01:43;6.93;;;1.80;;